createdAt,value
2019-01-09T00:02:27.431Z,5.70
2019-01-09T00:05:36.050Z,5.70
2019-01-09T00:37:14.206Z,5.70
2019-01-09T00:40:22.816Z,5.70
2019-01-09T00:43:31.548Z,5.70
2019-01-09T00:46:40.276Z,5.70
2019-01-09T00:59:57.891Z,5.70
2019-01-09T01:04:31.864Z,5.80
2019-01-09T01:12:41.106Z,5.70
2019-01-09T01:34:41.786Z,5.70
2019-01-09T01:38:12.902Z,5.70
2019-01-09T01:42:17.187Z,5.70
2019-01-09T01:45:53.221Z,5.70
2019-01-09T01:49:53.374Z,5.70
2019-01-09T02:01:31.491Z,5.60
2019-01-09T02:09:19.406Z,5.60
2019-01-09T02:29:27.301Z,5.50
2019-01-09T02:33:16.026Z,5.50
2019-01-09T02:36:42.398Z,5.50
2019-01-09T03:03:36.402Z,5.50
2019-01-09T03:10:46.846Z,5.40
2019-01-09T03:14:31.905Z,5.50
2019-01-09T03:17:50.942Z,5.50
2019-01-09T03:20:59.663Z,5.50
2019-01-09T03:24:27.264Z,5.50
2019-01-09T03:27:35.592Z,5.60
2019-01-09T03:31:14.880Z,5.60
2019-01-09T03:34:35.001Z,5.50
2019-01-09T03:45:59.817Z,5.50
2019-01-09T03:49:47.851Z,5.50
2019-01-09T03:53:19.324Z,5.50
2019-01-09T03:56:40.229Z,5.50
2019-01-09T04:00:04.645Z,5.40
2019-01-09T04:07:08.241Z,5.50
2019-01-09T04:11:19.577Z,5.60
2019-01-09T04:14:52.297Z,5.60
2019-01-09T04:18:00.804Z,5.60
2019-01-09T04:21:09.288Z,5.60
2019-01-09T04:24:17.726Z,5.60
2019-01-09T04:31:19.079Z,5.50
2019-01-09T04:34:27.560Z,5.60
2019-01-09T04:37:36.170Z,5.60
2019-01-09T04:45:41.855Z,5.60
2019-01-09T04:50:07.417Z,5.60
2019-01-09T04:56:56.868Z,5.60
2019-01-09T05:03:28.161Z,5.50
2019-01-09T05:06:36.687Z,5.50
2019-01-09T05:10:16.180Z,5.50
2019-01-09T05:16:44.271Z,5.60
2019-01-09T05:20:05.274Z,5.60
2019-01-09T05:23:25.718Z,5.50
2019-01-09T05:26:34.233Z,5.50
2019-01-09T05:30:05.574Z,5.50
2019-01-09T05:33:25.445Z,5.50
2019-01-09T05:36:45.383Z,5.60
2019-01-09T05:40:05.385Z,5.60
2019-01-09T05:43:32.057Z,5.60
2019-01-09T05:46:40.656Z,5.60
2019-01-09T05:49:49.161Z,5.40
2019-01-09T05:52:57.675Z,5.50
2019-01-09T05:56:28.803Z,5.60
2019-01-09T05:59:54.946Z,5.50
2019-01-09T06:03:13.733Z,5.50
2019-01-09T06:06:22.297Z,5.50
2019-01-09T06:09:30.803Z,5.50
2019-01-09T06:13:17.524Z,5.50
2019-01-09T06:16:37.796Z,5.50
2019-01-09T06:19:58.371Z,5.60
2019-01-09T06:23:06.822Z,5.50
2019-01-09T06:26:15.423Z,5.50
2019-01-09T06:29:35.192Z,5.50
2019-01-09T06:33:05.768Z,5.50
2019-01-09T06:36:36.872Z,5.50
2019-01-09T06:39:56.938Z,5.50
2019-01-09T06:43:05.494Z,5.50
2019-01-09T06:46:14.057Z,5.50
2019-01-09T06:49:44.933Z,5.50
2019-01-09T06:53:19.433Z,5.50
2019-01-09T06:56:28.131Z,5.40
2019-01-09T06:59:36.625Z,5.50
2019-01-09T07:02:45.162Z,5.50
2019-01-09T07:06:04.034Z,5.50
2019-01-09T07:09:24.436Z,5.60
2019-01-09T07:12:43.476Z,5.60
2019-01-09T07:15:52.072Z,5.60
2019-01-09T07:19:11.855Z,5.60
2019-01-09T07:22:20.431Z,5.60
2019-01-09T07:25:28.917Z,5.70
2019-01-09T07:28:59.396Z,5.70
2019-01-09T07:32:20.018Z,5.70
2019-01-09T07:35:40.364Z,5.80
2019-01-09T07:39:00.991Z,5.70
2019-01-09T07:42:09.514Z,5.70
2019-01-09T07:45:18.008Z,5.70
2019-01-09T07:48:37.988Z,5.70
2019-01-09T07:52:06.952Z,5.70
2019-01-09T07:55:41.789Z,5.70
2019-01-09T07:59:01.633Z,5.70
2019-01-09T08:02:22.247Z,5.70
2019-01-09T08:05:53.213Z,5.80
2019-01-09T08:09:23.993Z,5.80
2019-01-09T08:12:32.476Z,5.80
2019-01-09T08:16:03.569Z,5.90
2019-01-09T08:19:12.056Z,5.80
2019-01-09T08:22:30.955Z,5.80
2019-01-09T08:25:39.505Z,5.90
2019-01-09T08:29:20.243Z,5.90
2019-01-09T08:56:58.528Z,5.90
2019-01-09T10:06:56.193Z,6.00
2019-01-09T11:30:31.961Z,6.10
2019-01-09T12:34:39.946Z,6.10
2019-01-09T13:44:49.735Z,6.00
2019-01-09T13:47:58.228Z,6.00
2019-01-09T13:51:06.694Z,6.00
2019-01-09T13:54:43.797Z,5.90
2019-01-09T14:34:43.125Z,6.00
2019-01-09T15:35:10.446Z,5.90
2019-01-09T15:38:20.077Z,5.90
2019-01-09T15:41:28.581Z,5.90
2019-01-09T15:44:37.027Z,5.80
2019-01-09T18:14:49.547Z,5.60
2019-01-09T20:34:43.690Z,5.20
2019-01-09T20:37:52.160Z,5.20
2019-01-09T20:41:00.602Z,5.30
2019-01-09T20:44:42.085Z,5.30
2019-01-09T22:00:22.839Z,5.00
2019-01-09T22:50:12.948Z,4.60
2019-01-09T22:53:21.487Z,4.70
2019-01-09T23:06:06.444Z,4.60
2019-01-09T23:09:26.418Z,4.60
2019-01-09T23:16:53.650Z,4.60
2019-01-09T23:20:26.698Z,4.50
2019-01-09T23:28:09.277Z,4.60
2019-01-09T23:31:30.798Z,4.60
2019-01-09T23:43:01.903Z,4.40
2019-01-09T23:46:10.382Z,4.40
2019-01-09T23:53:30.669Z,4.50
2019-01-09T23:56:39.216Z,4.30
